Corpus Christi, TX

19:39 CDT le 22 octobre 2014 (GMT -0500)
Corpus Christi International | Change Station
CLOSE
Current Station
Aéroport
Location: Corpus Christi,
Altitude: 43 ft
Stations météo à proximité

Alt. 43 ft 27.77 °N, 97.51 °W | Updated 48 minutes ago

Ciel dégagé
Ciel dégagé
77 ° F
Paraît 77 ° F
N
13
Vent Variable Vent de Est

Aujourd'hui
Haut(e) -- | Bas -- ° F
--% Risque de précip.
Hier
Haut(e) -- | Bas -- ° F
Precip. -- pouce
7:34 AM 6:54 PM
Lune descendante, 1% visible
Pression 30.02 pouce
Visibilité 10.0 Miles terrestres
Nuages Peu 1200 ft
Peu 2500 ft
Peu 25000 ft
Point de rosée 66 ° F
Humidité 69%
Précipitations 0.00 pouce
Profondeur de la couche neigeuse Non disponible.
UV 0 sur 12
Pollen 6.20 sur 12
Ozone Bon
Flu Activity Sporadic
METAR KCRP 222351Z 08011KT 10SM FEW012 FEW025 FEW250 25/19 A3002 RMK AO2 SLP165 T02500189 10283 20250 53008

More Conditions Fewer Conditions

Pression 30.02 pouce
Visibilité 10.0 Miles terrestres
Nuages Peu 1200 ft
Peu 2500 ft
Peu 25000 ft
Point de rosée 66 ° F
Humidité 69%
Précipitations 0.00 pouce
Profondeur de la couche neigeuse Non disponible.
UV 0 sur 12
Pollen 6.20 sur 12
Ozone Bon
Flu Activity Sporadic
METAR KCRP 222351Z 08011KT 10SM FEW012 FEW025 FEW250 25/19 A3002 RMK AO2 SLP165 T02500189 10283 20250 53008

More Conditions Fewer Conditions

10-Day Weather Forecast

Almanac

Astronomie

Oct. 22, 2014 Lever Coucher
Temps réel 07:34 CDT 18:54 CDT
Crépuscule civil 07:10 CDT 19:17 CDT
Crépuscule nautique 06:43 CDT 19:45 CDT
Crépuscule astronomique 06:15 CDT 20:12 CDT
Lune 06:23 CDT (10/22) 18:17 CDT (10/22)
Durée de lumière visible 12h 07m
Longueur du jour
11h 19m
Tomorrow will be 1m 32s shorter.
Lune descendante, 1% of the Moon is Illuminated
Aujourd'hui
Lune descendante
Oct 23
Nouveau
Oct 30
Premier quartier
Nov 6
Pleine lune
Nov 14
Dernier quartier

Extrêmes aujourd'hui

State Highs State Lows

Community

WunderPhotos

Upload Photos

1,764,095 Photos téléchargées !

WunderBlogs® & News

Nearby

Qualité de l'air

  Qualité de l'air Indice de la qualité de l'air Polluant
Hier Moyen
OZONE
Actuel Bon
OZONE
mercredi Moyen
OZONE
mercredi Bon
PM10
jeudi Moyen
OZONE
jeudi Bon
PM10
vendredi Moyen
OZONE
vendredi Bon
PM10
samedi Moyen
OZONE
samedi Bon
PM10

Épaisseur de neige

Station Depth Altitude
Pas de nouvelles chutes de neige

Activité sismique

Ville Distance Mag. Time & Date
No recent earthquake activity has been reported nearby.
Minimum magnitude displayed is 2.5.

Températures des eaux côtières

Lieu Température
Baffin Bay Point of Rocks, TX 84.9 ° F
South Bird Island, TX 78.1 ° F
Packery Channel, TX 78.1 ° F
Port Aransas, TX 78.1 ° F
Malaquite Beach (Corpus Christi), TX 78.1 ° F

Stations météo à proximité